createdAt,value
2022-08-07T00:00:40.041Z,12.90
2022-08-07T00:03:08.766Z,12.90
2022-08-07T00:05:39.378Z,13.00
2022-08-07T00:08:10.579Z,13.00
2022-08-07T00:10:47.729Z,13.00
2022-08-07T00:13:25.556Z,13.00
2022-08-07T00:15:59.810Z,13.10
2022-08-07T00:18:29.259Z,13.00
2022-08-07T00:21:01.643Z,12.90
2022-08-07T00:23:33.014Z,12.90
2022-08-07T00:26:13.093Z,12.70
2022-08-07T00:28:55.704Z,12.90
2022-08-07T00:31:37.274Z,12.90
2022-08-07T00:34:09.162Z,12.80
2022-08-07T00:36:38.691Z,12.90
2022-08-07T00:39:16.475Z,12.80
2022-08-07T00:42:01.962Z,12.80
2022-08-07T00:44:33.639Z,12.80
2022-08-07T00:47:02.120Z,12.80
2022-08-07T00:50:19.863Z,12.70
2022-08-07T00:52:20.022Z,12.80
2022-08-07T00:54:53.584Z,12.80
2022-08-07T00:57:26.107Z,12.70
2022-08-07T00:59:54.351Z,12.60
2022-08-07T01:02:28.568Z,12.60
2022-08-07T01:04:58.626Z,12.60
2022-08-07T01:07:28.034Z,12.60
2022-08-07T01:10:04.893Z,12.60
2022-08-07T01:12:53.403Z,12.60
2022-08-07T01:15:35.905Z,12.50
2022-08-07T01:18:17.653Z,12.60
2022-08-07T01:20:59.485Z,12.60
2022-08-07T01:23:37.982Z,12.50
2022-08-07T01:26:11.862Z,12.50
2022-08-07T01:28:40.794Z,12.60
2022-08-07T01:31:15.303Z,12.50
2022-08-07T01:33:54.989Z,12.50
2022-08-07T01:36:33.248Z,12.50
2022-08-07T01:39:09.497Z,12.40
2022-08-07T01:41:39.090Z,12.30
2022-08-07T01:44:08.970Z,12.40
2022-08-07T01:46:37.518Z,12.30
2022-08-07T01:49:08.260Z,12.30
2022-08-07T01:52:03.693Z,12.30
2022-08-07T01:54:36.930Z,12.40
2022-08-07T01:57:08.520Z,12.40
2022-08-07T01:59:43.767Z,12.30
2022-08-07T02:03:12.086Z,12.30
2022-08-07T02:05:04.990Z,12.30
2022-08-07T02:07:44.762Z,12.30
2022-08-07T02:10:23.610Z,12.20
2022-08-07T02:12:55.418Z,12.20
2022-08-07T02:15:27.904Z,12.20
2022-08-07T02:17:57.043Z,12.20
2022-08-07T02:20:25.751Z,12.20
2022-08-07T02:22:59.951Z,12.10
2022-08-07T02:26:30.830Z,12.20
2022-08-07T02:28:24.808Z,12.20
2022-08-07T02:30:54.193Z,12.10
2022-08-07T02:33:23.346Z,12.20
2022-08-07T02:36:30.296Z,12.10
2022-08-07T02:38:57.126Z,12.00
2022-08-07T02:41:33.337Z,12.40
2022-08-07T02:44:05.672Z,11.80
2022-08-07T02:46:37.077Z,12.00
2022-08-07T02:49:56.157Z,12.00
2022-08-07T02:52:04.705Z,11.90
2022-08-07T02:54:35.268Z,11.90
2022-08-07T02:57:06.549Z,11.90
2022-08-07T02:59:35.665Z,11.80
2022-08-07T03:02:06.095Z,11.80
2022-08-07T03:04:37.423Z,11.80
2022-08-07T03:07:10.667Z,11.70
2022-08-07T03:09:42.216Z,11.70
2022-08-07T03:12:22.368Z,11.70
2022-08-07T03:14:58.765Z,11.70
2022-08-07T03:17:31.217Z,11.70
2022-08-07T03:20:04.895Z,11.60
2022-08-07T03:22:35.187Z,11.60
2022-08-07T03:25:03.264Z,11.50
2022-08-07T03:28:09.814Z,11.60
2022-08-07T03:30:21.354Z,11.80
2022-08-07T03:32:58.548Z,11.80
2022-08-07T03:35:43.532Z,11.90
2022-08-07T03:38:21.420Z,11.90
2022-08-07T03:40:57.636Z,11.90
2022-08-07T03:43:32.890Z,12.00
2022-08-07T03:46:01.885Z,12.00
2022-08-07T03:48:31.474Z,12.00
2022-08-07T03:50:59.695Z,12.10
2022-08-07T03:54:05.566Z,12.10
2022-08-07T03:56:33.188Z,12.10
2022-08-07T03:59:09.813Z,12.20
2022-08-07T04:01:43.265Z,12.10
2022-08-07T04:04:17.291Z,12.30
2022-08-07T04:06:45.939Z,12.20
2022-08-07T04:09:23.229Z,12.20
2022-08-07T04:12:27.406Z,12.20
2022-08-07T04:14:46.049Z,12.20
2022-08-07T04:17:19.890Z,12.20
2022-08-07T04:19:52.271Z,12.40
2022-08-07T04:22:23.338Z,12.40
2022-08-07T04:24:56.064Z,13.20
2022-08-07T04:27:26.839Z,12.60
2022-08-07T04:29:58.579Z,12.70
2022-08-07T04:32:34.507Z,12.80
2022-08-07T04:35:05.727Z,12.90
2022-08-07T04:37:34.860Z,13.20
2022-08-07T04:40:22.867Z,13.20
2022-08-07T04:43:01.633Z,13.20
2022-08-07T04:45:57.406Z,13.20
2022-08-07T04:48:29.306Z,13.30
2022-08-07T04:51:03.332Z,13.30
2022-08-07T04:54:01.937Z,13.40
2022-08-07T04:58:16.216Z,13.70
2022-08-07T05:00:09.014Z,13.30
2022-08-07T05:02:16.642Z,13.10
2022-08-07T05:04:50.617Z,13.10
2022-08-07T05:07:28.981Z,13.20
2022-08-07T05:10:05.767Z,13.40
2022-08-07T05:12:51.434Z,13.50
2022-08-07T05:15:25.822Z,13.40
2022-08-07T05:17:58.653Z,13.40
2022-08-07T05:20:36.127Z,13.70
2022-08-07T05:23:16.071Z,13.60
2022-08-07T05:26:13.027Z,13.60
2022-08-07T05:28:35.763Z,13.80
2022-08-07T05:31:04.848Z,13.90
2022-08-07T05:33:36.992Z,14.00
2022-08-07T05:36:08.249Z,14.10
2022-08-07T05:39:01.329Z,14.30
2022-08-07T05:42:02.497Z,14.40
2022-08-07T05:44:29.079Z,14.30
2022-08-07T05:47:00.295Z,14.40
2022-08-07T05:49:40.565Z,14.60
2022-08-07T05:52:12.175Z,14.60
2022-08-07T05:54:53.546Z,14.50
2022-08-07T05:57:26.457Z,14.50
2022-08-07T05:59:57.337Z,14.50
2022-08-07T06:02:29.302Z,14.80
2022-08-07T06:05:01.621Z,14.90
2022-08-07T06:08:13.605Z,15.00
2022-08-07T06:10:23.414Z,15.20
2022-08-07T06:12:53.578Z,15.20
2022-08-07T06:15:39.158Z,15.10
2022-08-07T06:18:14.008Z,15.20
2022-08-07T06:20:50.955Z,15.20
2022-08-07T06:24:37.319Z,15.40
2022-08-07T06:26:27.447Z,15.80
2022-08-07T06:28:59.025Z,16.60
2022-08-07T06:31:38.846Z,17.10
2022-08-07T06:34:15.439Z,17.20
2022-08-07T06:36:52.171Z,17.00
2022-08-07T06:40:18.417Z,16.90
2022-08-07T06:42:10.361Z,17.00
2022-08-07T06:44:39.615Z,16.90
2022-08-07T06:47:10.332Z,17.10
2022-08-07T06:49:51.736Z,17.40
2022-08-07T06:52:31.334Z,17.30
2022-08-07T06:55:33.378Z,17.70
2022-08-07T06:57:59.450Z,17.70
2022-08-07T07:00:29.011Z,17.50
2022-08-07T07:03:00.755Z,17.20
2022-08-07T07:06:04.074Z,17.70
2022-08-07T07:08:26.671Z,17.90
2022-08-07T07:10:56.661Z,17.80
2022-08-07T07:13:41.583Z,17.60
2022-08-07T07:16:23.186Z,17.40
2022-08-07T07:18:59.483Z,17.00
2022-08-07T07:21:40.372Z,16.70
2022-08-07T07:24:18.892Z,16.70
2022-08-07T07:26:51.710Z,16.80
2022-08-07T07:29:28.522Z,17.20
2022-08-07T07:32:13.972Z,17.50
2022-08-07T07:34:45.260Z,17.00
2022-08-07T07:37:44.205Z,16.80
2022-08-07T07:40:10.271Z,16.80
2022-08-07T07:42:50.902Z,16.70
2022-08-07T07:46:35.814Z,16.50
2022-08-07T07:48:11.924Z,16.50
2022-08-07T07:50:56.044Z,16.60
2022-08-07T07:53:25.712Z,16.70
2022-08-07T07:56:00.993Z,16.70
2022-08-07T07:58:30.955Z,16.80
2022-08-07T08:02:02.806Z,16.90
2022-08-07T08:04:09.620Z,17.00
2022-08-07T08:06:40.794Z,17.10
2022-08-07T08:09:23.668Z,17.00
2022-08-07T08:12:02.767Z,17.10
2022-08-07T08:14:32.515Z,17.40
2022-08-07T08:17:56.738Z,17.50
2022-08-07T08:20:17.707Z,17.80
2022-08-07T08:22:59.105Z,17.20
2022-08-07T08:25:49.273Z,17.20
2022-08-07T08:28:23.783Z,17.10
2022-08-07T08:31:06.705Z,16.70
2022-08-07T08:33:36.342Z,16.50
2022-08-07T08:36:07.884Z,16.40
2022-08-07T08:38:41.207Z,16.40
2022-08-07T08:41:14.635Z,16.40
2022-08-07T08:43:56.143Z,17.10
2022-08-07T08:46:33.159Z,17.10
2022-08-07T08:49:06.213Z,16.60
2022-08-07T08:52:01.009Z,16.70
2022-08-07T08:54:27.722Z,16.70
2022-08-07T08:57:00.046Z,17.50
2022-08-07T08:59:42.258Z,17.80
2022-08-07T09:02:36.524Z,17.40
2022-08-07T09:05:14.608Z,17.30
2022-08-07T09:07:58.050Z,17.60
2022-08-07T09:10:28.426Z,17.40
2022-08-07T09:13:05.758Z,17.90
2022-08-07T09:16:24.458Z,18.20
2022-08-07T09:18:53.398Z,18.40
2022-08-07T09:21:33.886Z,18.20
2022-08-07T09:24:32.559Z,18.00
2022-08-07T09:27:22.554Z,18.20
2022-08-07T09:30:06.615Z,18.30
2022-08-07T09:32:51.123Z,18.80
2022-08-07T09:36:04.845Z,18.00
2022-08-07T09:38:21.733Z,17.80
2022-08-07T09:41:07.920Z,18.20
2022-08-07T09:44:05.740Z,18.50
2022-08-07T09:47:49.622Z,18.30
2022-08-07T09:50:00.664Z,18.90
2022-08-07T09:52:34.612Z,19.00
2022-08-07T09:55:17.361Z,18.20
2022-08-07T09:58:08.523Z,17.40
2022-08-07T10:00:45.009Z,18.20
2022-08-07T10:04:06.191Z,18.80
2022-08-07T10:06:25.940Z,18.50
2022-08-07T10:09:10.630Z,19.10
2022-08-07T10:12:01.428Z,18.90
2022-08-07T10:14:42.956Z,18.80
2022-08-07T10:18:01.042Z,19.10
2022-08-07T10:20:31.867Z,19.80
2022-08-07T10:23:19.602Z,20.10
2022-08-07T10:26:13.726Z,20.00
2022-08-07T10:28:55.494Z,20.60
2022-08-07T10:31:38.456Z,20.60
2022-08-07T10:34:15.432Z,20.50
2022-08-07T10:36:58.525Z,20.30
2022-08-07T10:39:41.312Z,20.20
2022-08-07T10:42:31.295Z,20.10
2022-08-07T10:45:11.274Z,19.60
2022-08-07T10:47:51.453Z,19.90
2022-08-07T10:50:27.568Z,19.80
2022-08-07T10:53:09.216Z,20.70
2022-08-07T10:55:43.851Z,21.10
2022-08-07T10:58:32.041Z,20.10
2022-08-07T11:01:16.245Z,20.70
2022-08-07T11:03:54.806Z,20.20
2022-08-07T11:06:32.066Z,18.90
2022-08-07T11:09:11.255Z,18.30
2022-08-07T11:11:44.579Z,19.40
2022-08-07T11:14:46.353Z,18.80
2022-08-07T11:17:23.358Z,18.50
2022-08-07T11:20:05.759Z,19.80
2022-08-07T11:22:46.266Z,19.40
2022-08-07T11:25:21.272Z,19.00
2022-08-07T11:28:02.697Z,19.10
2022-08-07T11:30:42.017Z,19.20
2022-08-07T11:33:18.046Z,18.40
2022-08-07T11:35:59.842Z,18.40
2022-08-07T11:38:31.859Z,18.60
2022-08-07T11:41:02.243Z,18.50
2022-08-07T11:43:54.577Z,18.50
2022-08-07T11:46:36.793Z,18.80
2022-08-07T11:49:51.580Z,18.80
2022-08-07T11:52:29.392Z,19.60
2022-08-07T11:55:18.603Z,19.60
2022-08-07T11:58:00.344Z,18.70
2022-08-07T12:00:35.240Z,18.80
2022-08-07T12:03:41.955Z,19.20
2022-08-07T12:06:39.223Z,18.50
2022-08-07T12:09:16.487Z,18.80
2022-08-07T12:12:09.201Z,20.00
2022-08-07T12:14:52.675Z,19.50
2022-08-07T12:17:26.974Z,20.10
2022-08-07T12:20:14.007Z,19.90
2022-08-07T12:23:00.946Z,19.90
2022-08-07T12:26:05.723Z,20.50
2022-08-07T12:28:53.094Z,20.80
2022-08-07T12:31:25.348Z,21.00
2022-08-07T12:34:14.438Z,20.20
2022-08-07T12:36:49.583Z,19.50
2022-08-07T12:39:43.348Z,19.50
2022-08-07T12:42:13.251Z,19.50
2022-08-07T12:44:43.054Z,19.90
2022-08-07T12:47:27.094Z,20.00
2022-08-07T12:50:04.928Z,19.60
2022-08-07T12:52:58.243Z,19.30
2022-08-07T12:55:41.151Z,19.20
2022-08-07T12:58:28.097Z,18.80
2022-08-07T13:01:08.270Z,18.50
2022-08-07T13:04:03.037Z,18.50
2022-08-07T13:07:00.071Z,18.00
2022-08-07T13:10:28.888Z,17.80
2022-08-07T13:12:28.342Z,17.80
2022-08-07T13:15:03.062Z,18.50
2022-08-07T13:17:41.014Z,18.40
2022-08-07T13:20:17.244Z,18.20
2022-08-07T13:22:53.183Z,18.50
2022-08-07T13:25:29.607Z,18.00
2022-08-07T13:28:11.178Z,18.60
2022-08-07T13:30:48.854Z,18.60
2022-08-07T13:34:31.308Z,18.70
2022-08-07T13:36:17.829Z,19.90
2022-08-07T13:38:49.051Z,20.40
2022-08-07T13:41:22.723Z,19.50
2022-08-07T13:43:52.691Z,19.50
2022-08-07T13:46:33.415Z,19.10
2022-08-07T13:49:08.692Z,18.70
2022-08-07T13:52:22.467Z,18.40
2022-08-07T13:54:49.387Z,18.00
2022-08-07T13:57:23.912Z,18.60
2022-08-07T13:59:57.955Z,19.20
2022-08-07T14:02:39.572Z,19.60
2022-08-07T14:05:22.042Z,19.50
2022-08-07T14:08:00.575Z,19.10
2022-08-07T14:10:34.922Z,19.10
2022-08-07T14:13:11.692Z,19.50
2022-08-07T14:15:41.521Z,19.20
2022-08-07T14:18:28.657Z,19.50
2022-08-07T14:21:08.458Z,19.10
2022-08-07T14:24:00.303Z,18.90
2022-08-07T14:26:32.519Z,18.90
2022-08-07T14:29:06.021Z,18.80
2022-08-07T14:31:56.633Z,18.20
2022-08-07T14:34:45.444Z,18.10
2022-08-07T14:37:16.390Z,18.20
2022-08-07T14:40:16.779Z,18.60
2022-08-07T14:43:01.295Z,19.00
2022-08-07T14:45:46.788Z,18.80
2022-08-07T14:48:19.596Z,18.70
2022-08-07T14:51:16.301Z,18.70
2022-08-07T14:54:03.757Z,18.70
2022-08-07T14:56:35.452Z,19.10
2022-08-07T14:59:13.660Z,19.10
2022-08-07T15:01:51.056Z,19.00
2022-08-07T15:07:17.973Z,19.30
2022-08-07T15:12:42.241Z,19.70
2022-08-07T15:15:21.208Z,19.70
2022-08-07T15:17:55.899Z,19.50
2022-08-07T15:20:33.237Z,18.90
2022-08-07T15:23:20.897Z,19.30
2022-08-07T15:25:52.367Z,19.40
2022-08-07T15:28:31.428Z,19.50
2022-08-07T15:33:58.022Z,19.00
2022-08-07T15:37:03.683Z,19.00
2022-08-07T15:39:17.534Z,18.90
2022-08-07T15:42:46.126Z,19.20
2022-08-07T15:48:00.401Z,19.20
2022-08-07T15:50:37.530Z,19.30
2022-08-07T15:53:22.585Z,19.60
2022-08-07T15:56:13.344Z,19.70
2022-08-07T15:58:52.270Z,19.80
2022-08-07T16:01:23.328Z,19.80
2022-08-07T16:04:14.782Z,19.60
2022-08-07T16:06:45.438Z,19.50
2022-08-07T16:09:22.881Z,19.40
2022-08-07T16:12:02.021Z,19.10
2022-08-07T16:14:39.053Z,19.30
2022-08-07T16:18:00.843Z,19.70
2022-08-07T16:20:34.150Z,19.80
2022-08-07T16:23:54.246Z,19.20
2022-08-07T16:26:14.501Z,19.40
2022-08-07T16:29:18.280Z,19.10
2022-08-07T16:31:57.475Z,18.60
2022-08-07T16:34:30.800Z,19.10
2022-08-07T16:38:07.135Z,19.40
2022-08-07T16:40:28.362Z,19.20
2022-08-07T16:43:01.767Z,18.90
2022-08-07T16:46:40.758Z,19.20
2022-08-07T16:50:28.094Z,19.30
2022-08-07T16:52:06.374Z,19.80
2022-08-07T16:54:55.083Z,19.70
2022-08-07T16:58:01.686Z,19.50
2022-08-07T17:00:30.128Z,20.00
2022-08-07T17:03:58.421Z,19.40
2022-08-07T17:06:29.789Z,19.40
2022-08-07T17:09:09.014Z,19.70
2022-08-07T17:12:04.524Z,19.60
2022-08-07T17:14:37.504Z,20.00
2022-08-07T17:17:10.280Z,19.80
2022-08-07T17:20:01.914Z,19.30
2022-08-07T17:22:37.533Z,18.90
2022-08-07T17:25:15.223Z,18.90
2022-08-07T17:27:50.957Z,19.20
2022-08-07T17:30:26.965Z,19.40
2022-08-07T17:34:09.854Z,19.00
2022-08-07T17:36:01.906Z,19.20
2022-08-07T17:38:35.332Z,19.10
2022-08-07T17:42:02.664Z,19.20
2022-08-07T17:44:07.382Z,19.20
2022-08-07T17:46:43.698Z,18.90
2022-08-07T17:49:23.972Z,18.80
2022-08-07T17:52:00.417Z,18.80
2022-08-07T17:54:53.150Z,19.00
2022-08-07T17:57:24.795Z,18.60
2022-08-07T18:00:34.198Z,18.40
2022-08-07T18:03:18.577Z,18.50
2022-08-07T18:06:03.447Z,18.70
2022-08-07T18:09:01.065Z,18.20
2022-08-07T18:12:08.054Z,18.00
2022-08-07T18:14:24.480Z,17.80
2022-08-07T18:16:58.055Z,18.00
2022-08-07T18:21:09.845Z,18.10
2022-08-07T18:22:26.371Z,17.60
2022-08-07T18:25:19.165Z,17.90
2022-08-07T18:27:58.490Z,18.10
2022-08-07T18:30:36.846Z,17.80
2022-08-07T18:33:29.293Z,17.80
2022-08-07T18:36:06.021Z,17.70
2022-08-07T18:38:56.459Z,17.70
2022-08-07T18:41:44.607Z,17.50
2022-08-07T18:44:27.162Z,17.90
2022-08-07T18:47:02.352Z,18.00
2022-08-07T18:50:31.745Z,17.80
2022-08-07T18:52:57.969Z,17.80
2022-08-07T18:55:41.015Z,17.80
2022-08-07T18:58:35.304Z,17.70
2022-08-07T19:01:07.106Z,17.90
2022-08-07T19:04:00.628Z,17.70
2022-08-07T19:06:48.238Z,17.80
2022-08-07T19:09:57.012Z,17.80
2022-08-07T19:12:27.179Z,17.80
2022-08-07T19:16:02.636Z,17.70
2022-08-07T19:18:16.884Z,17.50
2022-08-07T19:21:09.858Z,17.30
2022-08-07T19:24:00.288Z,17.20
2022-08-07T19:27:09.361Z,17.10
2022-08-07T19:30:57.443Z,17.00
2022-08-07T19:32:26.540Z,16.90
2022-08-07T19:35:01.688Z,16.80
2022-08-07T19:37:55.664Z,16.90
2022-08-07T19:40:30.573Z,16.80
2022-08-07T19:43:03.877Z,17.00
2022-08-07T19:46:04.699Z,17.00
2022-08-07T19:48:43.807Z,17.10
2022-08-07T19:51:50.494Z,16.90
2022-08-07T19:54:33.671Z,17.00
2022-08-07T19:58:00.141Z,16.70
2022-08-07T19:59:54.633Z,16.60
2022-08-07T20:02:29.172Z,16.70
2022-08-07T20:05:01.533Z,16.60
2022-08-07T20:07:47.674Z,16.50
2022-08-07T20:10:36.475Z,16.40
2022-08-07T20:13:23.212Z,16.60
2022-08-07T20:15:59.070Z,16.40
2022-08-07T20:18:33.544Z,16.30
2022-08-07T20:21:20.809Z,16.40
2022-08-07T20:23:58.015Z,16.40
2022-08-07T20:26:32.390Z,16.20
2022-08-07T20:29:48.180Z,16.30
2022-08-07T20:32:07.071Z,16.30
2022-08-07T20:34:51.186Z,16.20
2022-08-07T20:37:24.437Z,16.20
2022-08-07T20:40:02.364Z,16.20
2022-08-07T20:42:37.302Z,16.10
2022-08-07T20:45:32.855Z,16.10
2022-08-07T20:47:58.454Z,16.10
2022-08-07T20:50:30.574Z,16.10
2022-08-07T20:52:59.145Z,16.10
2022-08-07T20:55:32.195Z,16.10
2022-08-07T20:58:11.944Z,16.00
2022-08-07T21:00:52.162Z,16.00
2022-08-07T21:03:26.019Z,15.90
2022-08-07T21:05:57.146Z,16.00
2022-08-07T21:08:36.941Z,16.00
2022-08-07T21:11:10.809Z,16.00
2022-08-07T21:13:43.742Z,16.00
2022-08-07T21:16:27.419Z,16.10
2022-08-07T21:18:58.910Z,16.10
2022-08-07T21:21:33.067Z,16.00
2022-08-07T21:24:04.354Z,16.10
2022-08-07T21:26:42.909Z,16.10
2022-08-07T21:29:18.339Z,16.20
2022-08-07T21:32:46.661Z,16.20
2022-08-07T21:34:46.134Z,16.10
2022-08-07T21:37:21.570Z,16.10
2022-08-07T21:39:55.058Z,16.10
2022-08-07T21:42:49.324Z,16.00
2022-08-07T21:46:08.908Z,16.10
2022-08-07T21:48:29.092Z,16.00
2022-08-07T21:51:06.309Z,16.00
2022-08-07T21:53:37.029Z,16.00
2022-08-07T21:56:36.646Z,16.00
2022-08-07T21:59:11.454Z,16.00
2022-08-07T22:02:10.786Z,15.90
2022-08-07T22:04:53.595Z,15.80
2022-08-07T22:07:31.454Z,15.80
2022-08-07T22:10:10.084Z,15.70
2022-08-07T22:12:44.279Z,15.60
2022-08-07T22:16:44.425Z,15.60
2022-08-07T22:18:06.386Z,15.60
2022-08-07T22:20:43.976Z,15.50
2022-08-07T22:23:15.907Z,15.50
2022-08-07T22:25:48.284Z,15.50
2022-08-07T22:28:31.742Z,15.40
2022-08-07T22:31:09.591Z,15.30
2022-08-07T22:33:56.524Z,15.30
2022-08-07T22:36:32.964Z,15.20
2022-08-07T22:39:04.689Z,15.10
2022-08-07T22:42:03.815Z,15.10
2022-08-07T22:44:25.947Z,15.00
2022-08-07T22:47:17.786Z,15.00
2022-08-07T22:50:07.861Z,14.90
2022-08-07T22:52:52.204Z,14.90
2022-08-07T22:55:38.480Z,14.80
2022-08-07T22:58:13.650Z,14.80
2022-08-07T23:00:47.129Z,14.80
2022-08-07T23:03:33.050Z,14.70
2022-08-07T23:06:31.386Z,14.60
2022-08-07T23:10:04.248Z,14.60
2022-08-07T23:12:03.195Z,14.60
2022-08-07T23:14:39.063Z,14.60
2022-08-07T23:17:19.852Z,14.50
2022-08-07T23:20:10.261Z,14.60
2022-08-07T23:22:45.398Z,14.60
2022-08-07T23:25:21.119Z,14.60
2022-08-07T23:28:21.073Z,14.60
2022-08-07T23:31:06.720Z,14.50
2022-08-07T23:34:34.557Z,14.40
2022-08-07T23:37:17.711Z,14.10
2022-08-07T23:39:41.239Z,14.50
2022-08-07T23:42:15.679Z,14.60
2022-08-07T23:44:58.993Z,14.50
2022-08-07T23:47:42.179Z,14.50
2022-08-07T23:50:21.622Z,14.50
2022-08-07T23:53:17.191Z,14.60
2022-08-07T23:55:55.909Z,14.50
2022-08-07T23:58:35.268Z,14.30
